Time;durP1;ratioP1;P1;durP2;ratioP2;P2;SDS_P1;SDS_P2;PMS_P1;PMS_P2;Temp;Humidity;BMP_temperature;BMP_pressure;BME280_temperature;BME280_humidity;BME280_pressure;Samples;Min_cycle;Max_cycle;Signal;HPM_P1;HPM_P2
2022/08/27 00:01:59;;;;;;;40.35;21.33;;;;;;;18.51;87.10;99295.13;5063696;28;20054;-57
2022/08/27 00:04:24;;;;;;;43.40;20.65;;;;;;;18.49;86.99;99302.72;5064001;28;20031;-56
2022/08/27 00:06:50;;;;;;;43.30;20.85;;;;;;;18.48;87.05;99296.50;5060806;28;20020;-57
2022/08/27 00:09:15;;;;;;;34.42;19.42;;;;;;;18.53;86.87;99287.50;5102665;28;20024;-55
2022/08/27 00:11:41;;;;;;;41.22;20.80;;;;;;;18.39;88.26;99289.31;5071061;28;20031;-56
2022/08/27 00:14:06;;;;;;;43.25;21.85;;;;;;;18.48;87.40;99279.41;5065643;28;20033;-56
2022/08/27 00:16:32;;;;;;;43.65;21.60;;;;;;;18.42;87.81;99286.00;5068295;28;20025;-56
2022/08/27 00:18:57;;;;;;;49.38;24.90;;;;;;;18.43;88.12;99284.91;5067341;28;20028;-56
2022/08/27 00:21:23;;;;;;;50.85;26.23;;;;;;;18.36;88.30;99277.13;5065995;28;20033;-56
2022/08/27 00:23:49;;;;;;;50.30;23.80;;;;;;;18.27;88.63;99271.56;5068327;28;20492;-56
2022/08/27 00:26:14;;;;;;;50.97;22.95;;;;;;;18.29;88.68;99269.34;5070933;28;20488;-55
2022/08/27 00:28:40;;;;;;;37.33;23.30;;;;;;;18.37;88.50;99267.09;5070861;28;20029;-55
2022/08/27 00:31:06;;;;;;;39.95;20.70;;;;;;;18.38;88.34;99268.72;5064278;28;20385;-55
2022/08/27 00:33:31;;;;;;;42.20;22.55;;;;;;;18.37;88.24;99269.78;5070230;28;20071;-56
2022/08/27 00:35:57;;;;;;;42.25;20.88;;;;;;;18.30;88.54;99265.56;5057534;28;20471;-55
2022/08/27 00:38:22;;;;;;;45.53;22.40;;;;;;;18.21;89.19;99264.59;5070516;28;20032;-56
2022/08/27 00:40:48;;;;;;;49.22;23.00;;;;;;;18.24;89.24;99263.19;5069338;28;20051;-56
2022/08/27 00:43:20;;;;;;;41.65;23.55;;;;;;;18.17;89.71;99263.56;5064264;28;20387;-56
2022/08/27 00:45:46;;;;;;;53.70;26.33;;;;;;;18.15;89.59;99260.34;5061040;28;20035;-54
2022/08/27 00:48:13;;;;;;;51.08;24.58;;;;;;;18.27;89.32;99263.44;5070578;28;20032;-55
2022/08/27 00:50:45;;;;;;;56.35;25.23;;;;;;;18.17;90.00;99255.44;5057561;28;20582;-55
2022/08/27 00:53:17;;;;;;;57.88;25.92;;;;;;;18.22;90.35;99255.38;5056815;28;20024;-56
2022/08/27 00:55:48;;;;;;;54.03;25.70;;;;;;;18.21;90.16;99252.94;5092326;28;20016;-55
2022/08/27 00:58:24;;;;;;;52.72;26.42;;;;;;;18.26;89.63;99256.38;5063606;28;20116;-56
2022/08/27 01:00:50;;;;;;;53.92;26.75;;;;;;;18.23;89.87;99254.25;5063704;28;20483;-56
2022/08/27 01:03:15;;;;;;;51.35;25.27;;;;;;;18.26;89.74;99253.66;5066479;28;20032;-56
2022/08/27 01:05:42;;;;;;;58.80;29.23;;;;;;;18.14;90.12;99250.56;5068772;28;20055;-61
2022/08/27 01:08:13;;;;;;;55.70;26.50;;;;;;;18.17;89.92;99247.28;5054093;28;20375;-55
2022/08/27 01:10:39;;;;;;;73.78;30.90;;;;;;;17.99;91.21;99250.78;5051018;28;20059;-55
2022/08/27 01:13:08;;;;;;;64.13;30.80;;;;;;;18.09;90.61;99250.63;5052386;28;20079;-56
2022/08/27 01:15:33;;;;;;;62.47;28.58;;;;;;;18.20;89.55;99249.41;5048996;28;20103;-55
2022/08/27 01:17:59;;;;;;;65.97;28.65;;;;;;;18.10;90.44;99241.44;5068528;28;20429;-56
2022/08/27 01:20:28;;;;;;;58.03;29.08;;;;;;;18.09;90.41;99237.06;5067614;28;20033;-57
2022/08/27 01:23:12;;;;;;;64.18;31.30;;;;;;;18.12;90.45;99241.91;5045459;28;20028;-56
2022/08/27 01:25:39;;;;;;;57.00;29.33;;;;;;;18.10;90.75;99241.44;5069067;28;20028;-55
2022/08/27 01:28:04;;;;;;;67.20;33.25;;;;;;;18.05;91.05;99239.59;5052144;28;20463;-55
2022/08/27 01:30:30;;;;;;;67.03;33.22;;;;;;;18.06;91.04;99240.38;5051238;28;20037;-56
2022/08/27 01:32:55;;;;;;;66.13;33.80;;;;;;;18.01;91.21;99240.44;5065483;28;20028;-55
2022/08/27 01:35:22;;;;;;;68.30;33.13;;;;;;;17.96;92.35;99235.91;5058742;28;20039;-56
2022/08/27 01:37:48;;;;;;;68.82;34.80;;;;;;;17.94;91.79;99237.28;5062725;28;20055;-55
2022/08/27 01:40:14;;;;;;;69.72;34.58;;;;;;;17.91;92.37;99237.88;5051389;28;20395;-55
2022/08/27 01:42:41;;;;;;;71.15;33.15;;;;;;;17.94;92.22;99240.78;5058289;28;20032;-55
2022/08/27 01:45:09;;;;;;;74.75;35.47;;;;;;;17.98;92.60;99238.31;5070397;28;20063;-56
2022/08/27 01:47:35;;;;;;;73.60;34.70;;;;;;;17.92;93.67;99229.44;5059934;28;20384;-55
2022/08/27 01:50:01;;;;;;;82.30;38.47;;;;;;;17.88;93.04;99239.25;5061656;28;20021;-55
2022/08/27 01:52:28;;;;;;;82.45;38.85;;;;;;;17.75;94.60;99232.59;5064158;28;20427;-55
2022/08/27 01:54:53;;;;;;;87.00;40.22;;;;;;;17.73;95.03;99236.72;5059184;28;20470;-55
2022/08/27 01:57:19;;;;;;;86.00;41.75;;;;;;;17.71;95.52;99242.41;5064568;28;20032;-55
2022/08/27 01:59:45;;;;;;;88.55;42.40;;;;;;;17.75;95.22;99239.94;5069250;28;20457;-56
2022/08/27 02:02:11;;;;;;;101.35;42.83;;;;;;;17.74;95.37;99239.09;5097668;28;20017;-56
2022/08/27 02:04:36;;;;;;;101.18;46.40;;;;;;;17.64;95.46;99239.22;5065193;28;20048;-55
2022/08/27 02:07:02;;;;;;;104.22;46.85;;;;;;;17.62;95.04;99236.00;5052111;28;20029;-55
2022/08/27 02:09:27;;;;;;;102.25;46.10;;;;;;;17.58;95.92;99232.28;5062433;28;20064;-55
2022/08/27 02:11:53;;;;;;;111.95;48.30;;;;;;;17.62;95.04;99230.56;5101552;28;20028;-55
2022/08/27 02:14:19;;;;;;;105.55;48.13;;;;;;;17.53;95.74;99232.31;5069520;28;20032;-55
2022/08/27 02:16:47;;;;;;;106.60;48.30;;;;;;;17.53;95.46;99229.63;5064179;28;20067;-55
2022/08/27 02:19:12;;;;;;;107.93;45.95;;;;;;;17.51;95.61;99223.69;5072923;28;20108;-56
2022/08/27 02:21:37;;;;;;;112.82;47.53;;;;;;;17.54;95.54;99223.91;5062470;28;20028;-54
2022/08/27 02:24:03;;;;;;;99.75;45.03;;;;;;;17.56;95.05;99220.91;5068707;28;20016;-56
2022/08/27 02:26:28;;;;;;;116.88;48.80;;;;;;;17.55;95.17;99220.09;5073127;28;20029;-55
2022/08/27 02:28:54;;;;;;;118.03;48.47;;;;;;;17.55;95.31;99213.88;5070555;28;20036;-55
2022/08/27 02:31:20;;;;;;;116.07;51.13;;;;;;;17.53;95.34;99216.06;5065946;28;20028;-55
2022/08/27 02:33:46;;;;;;;119.80;51.13;;;;;;;17.49;95.68;99209.59;5064922;28;20032;-56
2022/08/27 02:36:12;;;;;;;114.38;49.75;;;;;;;17.51;95.86;99223.69;5063447;28;20051;-55
2022/08/27 02:38:38;;;;;;;110.22;50.58;;;;;;;17.49;95.74;99221.25;5069539;28;20032;-55
2022/08/27 02:41:03;;;;;;;104.13;48.08;;;;;;;17.43;97.00;99217.78;5058026;28;20105;-54
2022/08/27 02:43:30;;;;;;;119.72;51.63;;;;;;;17.36;97.02;99217.31;5070498;28;20031;-55
2022/08/27 02:45:56;;;;;;;114.63;49.63;;;;;;;17.29;96.91;99218.75;5069582;28;20025;-55
2022/08/27 02:48:23;;;;;;;116.30;51.33;;;;;;;17.23;97.97;99213.41;5072792;28;20035;-55
2022/08/27 02:50:49;;;;;;;120.82;53.10;;;;;;;17.28;97.59;99212.53;5066625;28;20032;-55
2022/08/27 02:53:15;;;;;;;122.03;53.25;;;;;;;17.18;98.39;99212.66;5066725;28;20028;-55
2022/08/27 02:55:40;;;;;;;122.32;51.30;;;;;;;17.17;98.37;99217.25;5072111;28;20468;-56
2022/08/27 02:58:05;;;;;;;122.47;51.47;;;;;;;17.20;98.42;99224.00;5067905;28;20020;-55
2022/08/27 03:00:31;;;;;;;114.50;51.92;;;;;;;17.13;99.07;99228.94;5059811;28;20500;-55
2022/08/27 03:02:56;;;;;;;121.85;54.65;;;;;;;17.11;99.20;99223.81;5060814;28;20025;-55
2022/08/27 03:05:22;;;;;;;130.55;53.75;;;;;;;17.00;99.96;99225.81;5071239;28;20052;-54
2022/08/27 03:07:48;;;;;;;122.97;51.63;;;;;;;17.12;98.89;99227.31;5072314;28;20463;-55
2022/08/27 03:10:15;;;;;;;125.32;53.28;;;;;;;17.13;99.17;99234.38;5072684;28;20437;-55
2022/08/27 03:12:40;;;;;;;126.20;51.47;;;;;;;17.22;98.17;99230.75;5071691;28;20379;-56
2022/08/27 03:15:08;;;;;;;121.57;53.42;;;;;;;17.08;99.44;99231.72;5072036;28;20031;-54
2022/08/27 03:20:17;;;;;;;110.78;46.30;;;;;;;17.09;99.51;99226.00;5066551;28;20370;-56
2022/08/27 03:22:43;;;;;;;116.80;48.45;;;;;;;17.01;99.29;99227.41;5063113;28;20024;-55
2022/08/27 03:25:09;;;;;;;124.93;48.63;;;;;;;16.96;100.00;99230.16;5067028;28;20050;-55
2022/08/27 03:27:34;;;;;;;117.88;47.47;;;;;;;16.92;100.00;99225.59;5061215;28;20047;-55
2022/08/27 03:30:04;;;;;;;109.10;46.72;;;;;;;16.96;100.00;99226.66;5070750;28;20028;-55
2022/08/27 03:32:30;;;;;;;126.50;49.95;;;;;;;16.92;100.00;99223.69;5070537;28;20090;-55
2022/08/27 03:34:57;;;;;;;116.60;47.55;;;;;;;16.95;100.00;99228.56;5061117;28;20032;-54
2022/08/27 03:37:22;;;;;;;117.57;50.05;;;;;;;16.74;100.00;99230.59;5063409;28;20021;-54
2022/08/27 03:39:48;;;;;;;114.80;47.97;;;;;;;16.89;100.00;99240.50;5068415;28;20024;-55
2022/08/27 03:42:13;;;;;;;129.00;51.03;;;;;;;16.81;100.00;99233.00;5062525;28;20229;-55
2022/08/27 03:44:39;;;;;;;118.18;50.85;;;;;;;16.89;100.00;99240.50;5070677;28;20028;-55
2022/08/27 03:47:04;;;;;;;126.55;50.92;;;;;;;16.83;100.00;99240.84;5053269;28;20458;-56
2022/08/27 03:49:30;;;;;;;121.90;50.20;;;;;;;16.79;100.00;99243.31;5067090;28;20055;-55
2022/08/27 03:51:55;;;;;;;126.38;49.42;;;;;;;16.80;100.00;99242.22;5064494;28;20542;-56
2022/08/27 03:54:21;;;;;;;121.18;48.25;;;;;;;16.83;100.00;99241.66;5056325;28;20028;-55
2022/08/27 03:56:46;;;;;;;142.85;49.78;;;;;;;16.72;100.00;99235.47;5065905;28;20066;-56
2022/08/27 03:59:14;;;;;;;138.35;51.85;;;;;;;16.77;100.00;99237.34;5054683;28;20039;-55
2022/08/27 04:01:39;;;;;;;143.50;52.55;;;;;;;16.79;100.00;99237.91;5053886;28;20032;-56
2022/08/27 04:04:05;;;;;;;136.68;52.80;;;;;;;16.67;100.00;99238.22;5053982;28;20032;-55
2022/08/27 04:06:33;;;;;;;143.30;51.88;;;;;;;16.69;100.00;99241.44;5068302;28;20047;-56
2022/08/27 04:08:59;;;;;;;146.48;50.67;;;;;;;16.73;100.00;99241.72;5063534;28;20068;-55
2022/08/27 04:11:24;;;;;;;136.73;49.40;;;;;;;16.74;100.00;99248.72;5063193;28;20020;-55
2022/08/27 04:13:50;;;;;;;131.20;47.03;;;;;;;16.73;100.00;99252.53;5070969;28;20451;-55
2022/08/27 04:16:15;;;;;;;134.98;50.65;;;;;;;16.60;100.00;99243.97;5070686;28;20467;-55
2022/08/27 04:18:41;;;;;;;121.22;46.13;;;;;;;16.57;100.00;99249.13;5065716;28;20357;-55
2022/08/27 04:21:08;;;;;;;125.40;47.92;;;;;;;16.58;100.00;99245.34;5056958;28;20107;-55
2022/08/27 04:23:33;;;;;;;122.05;46.58;;;;;;;16.59;100.00;99257.75;5070453;28;20486;-54
2022/08/27 04:25:59;;;;;;;113.70;44.67;;;;;;;16.54;100.00;99247.78;5056659;28;20037;-55
2022/08/27 04:28:25;;;;;;;116.90;44.85;;;;;;;16.53;100.00;99243.47;5064415;28;20090;-55
2022/08/27 04:30:50;;;;;;;121.10;44.63;;;;;;;16.51;100.00;99245.66;5060668;28;20112;-55
2022/08/27 04:33:15;;;;;;;108.80;40.85;;;;;;;16.58;100.00;99251.56;5066249;28;20463;-56
2022/08/27 04:35:41;;;;;;;104.95;43.67;;;;;;;16.49;100.00;99245.13;5068135;28;20029;-55
2022/08/27 04:38:06;;;;;;;105.65;41.15;;;;;;;16.53;100.00;99248.88;5067133;28;20044;-54
2022/08/27 04:43:16;;;;;;;116.18;42.75;;;;;;;16.46;100.00;99248.38;5058575;28;20464;-56
2022/08/27 04:45:46;;;;;;;98.50;40.90;;;;;;;16.57;100.00;99258.06;5053052;28;20025;-54
2022/08/27 04:48:12;;;;;;;99.57;41.25;;;;;;;16.56;100.00;99256.44;5063193;28;20016;-55
2022/08/27 04:50:40;;;;;;;102.13;41.60;;;;;;;16.64;100.00;99255.03;5063691;28;20095;-55
2022/08/27 04:53:07;;;;;;;81.97;36.47;;;;;;;16.72;100.00;99261.72;5066657;28;20021;-54
2022/08/27 04:55:32;;;;;;;90.82;37.85;;;;;;;16.63;100.00;99263.44;5070096;28;20471;-54
2022/08/27 04:57:58;;;;;;;87.13;39.13;;;;;;;16.61;100.00;99266.41;5070269;28;20122;-55
2022/08/27 05:00:23;;;;;;;92.22;36.70;;;;;;;16.59;100.00;99260.47;5070303;28;20141;-54
2022/08/27 05:02:49;;;;;;;92.68;36.90;;;;;;;16.58;100.00;99266.97;5070401;28;20025;-56
2022/08/27 05:05:14;;;;;;;87.78;36.05;;;;;;;16.52;100.00;99263.47;5068928;28;20509;-55
2022/08/27 05:07:40;;;;;;;93.80;40.00;;;;;;;16.56;100.00;99263.75;5062056;28;20028;-55
2022/08/27 05:10:06;;;;;;;87.75;37.00;;;;;;;16.58;100.00;99267.78;5058298;28;20046;-55
2022/08/27 05:12:31;;;;;;;87.78;36.88;;;;;;;16.68;100.00;99266.09;5068854;28;20036;-54
2022/08/27 05:14:57;;;;;;;86.85;36.72;;;;;;;16.67;100.00;99261.75;5064572;28;20039;-56
2022/08/27 05:17:22;;;;;;;94.63;38.40;;;;;;;16.55;100.00;99273.75;5058502;28;20426;-55
2022/08/27 05:19:48;;;;;;;102.38;38.75;;;;;;;16.60;100.00;99265.63;5069555;28;20028;-54
2022/08/27 05:22:13;;;;;;;93.65;37.67;;;;;;;16.58;100.00;99273.19;5069311;28;20037;-55
2022/08/27 05:24:39;;;;;;;101.43;38.28;;;;;;;16.58;100.00;99270.50;5057857;28;20067;-55
2022/08/27 05:27:04;;;;;;;101.35;37.42;;;;;;;16.47;100.00;99270.81;5065039;28;20039;-54
2022/08/27 05:29:30;;;;;;;102.25;38.22;;;;;;;16.48;100.00;99267.84;5064145;28;20061;-55
2022/08/27 05:31:55;;;;;;;89.97;36.28;;;;;;;16.53;100.00;99270.53;5059103;28;20040;-55
2022/08/27 05:34:21;;;;;;;93.35;39.80;;;;;;;16.49;100.00;99274.88;5065783;28;20032;-54
2022/08/27 05:36:47;;;;;;;95.88;37.28;;;;;;;16.43;100.00;99273.28;5069094;28;20398;-56
2022/08/27 05:39:12;;;;;;;88.95;37.47;;;;;;;16.49;100.00;99280.28;5068156;28;20035;-55
2022/08/27 05:41:38;;;;;;;92.45;38.50;;;;;;;16.54;100.00;99280.25;5065272;28;20097;-54
2022/08/27 05:44:08;;;;;;;98.43;38.70;;;;;;;16.55;100.00;99278.38;5059196;28;20029;-55
2022/08/27 05:46:35;;;;;;;93.68;37.67;;;;;;;16.53;100.00;99278.66;5060173;28;20449;-55
2022/08/27 05:49:00;;;;;;;106.00;38.55;;;;;;;16.47;100.00;99273.53;5065156;28;20024;-55
2022/08/27 05:51:31;;;;;;;107.60;40.88;;;;;;;16.50;100.00;99276.50;5068969;28;20044;-55
2022/08/27 05:54:02;;;;;;;127.95;42.08;;;;;;;16.45;100.00;99279.25;5069940;28;20016;-55
2022/08/27 05:56:29;;;;;;;133.27;42.60;;;;;;;16.39;100.00;99280.34;5069331;28;20035;-55
2022/08/27 06:01:40;;;;;;;152.27;46.42;;;;;;;16.37;100.00;99277.94;5057945;28;20556;-55
2022/08/27 06:04:06;;;;;;;155.10;47.05;;;;;;;16.29;100.00;99281.19;5069182;28;20070;-56
2022/08/27 06:06:35;;;;;;;151.40;45.70;;;;;;;16.35;100.00;99279.31;5068740;28;20380;-55
2022/08/27 06:09:01;;;;;;;159.35;49.83;;;;;;;16.34;100.00;99272.25;5064707;28;20020;-55
2022/08/27 06:11:27;;;;;;;168.38;51.13;;;;;;;16.28;100.00;99273.38;5059311;28;20040;-55
2022/08/27 06:13:52;;;;;;;168.57;50.20;;;;;;;16.28;100.00;99273.38;5067913;28;20479;-56
2022/08/27 06:16:18;;;;;;;173.88;48.53;;;;;;;16.36;100.00;99272.78;5056725;28;20040;-54
2022/08/27 06:18:45;;;;;;;170.90;49.97;;;;;;;16.42;100.00;99274.38;5056358;28;20376;-55
2022/08/27 06:21:10;;;;;;;172.80;55.00;;;;;;;16.39;100.00;99277.63;5058695;28;20040;-55
2022/08/27 06:23:36;;;;;;;178.30;53.78;;;;;;;16.49;100.00;99274.88;5065198;28;20024;-56
2022/08/27 06:26:04;;;;;;;171.32;51.90;;;;;;;16.71;100.00;99270.94;5069125;28;20037;-55
2022/08/27 06:28:30;;;;;;;194.38;58.35;;;;;;;16.55;100.00;99271.06;5064570;28;20040;-55
2022/08/27 06:31:06;;;;;;;198.88;58.95;;;;;;;16.60;100.00;99275.63;5069424;28;20020;-53
2022/08/27 06:33:31;;;;;;;183.07;56.55;;;;;;;16.75;100.00;99272.00;5066770;28;20032;-55
2022/08/27 06:36:00;;;;;;;176.73;57.05;;;;;;;16.79;100.00;99273.88;5064947;28;20109;-55
2022/08/27 06:38:26;;;;;;;178.02;57.30;;;;;;;16.70;100.00;99282.84;5067922;28;20028;-55
2022/08/27 06:40:52;;;;;;;192.25;59.22;;;;;;;16.78;100.00;99283.09;5065730;28;20044;-55
2022/08/27 06:43:18;;;;;;;179.18;58.50;;;;;;;16.66;100.00;99281.81;5069133;28;20108;-55
2022/08/27 06:45:43;;;;;;;196.88;60.63;;;;;;;16.75;100.00;99277.44;5067598;28;20036;-56
2022/08/27 06:48:09;;;;;;;186.38;58.25;;;;;;;16.71;100.00;99282.56;5068869;28;20029;-52
2022/08/27 06:50:38;;;;;;;163.50;55.35;;;;;;;16.84;99.93;99281.16;5068805;28;20048;-55
2022/08/27 06:53:04;;;;;;;182.77;58.28;;;;;;;16.71;100.00;99281.78;5068715;28;20032;-55
2022/08/27 06:55:29;;;;;;;166.63;56.08;;;;;;;16.75;100.00;99282.84;5069215;28;20033;-55
2022/08/27 06:57:55;;;;;;;173.07;56.75;;;;;;;16.65;100.00;99281.00;5060224;28;20367;-55
2022/08/27 07:00:20;;;;;;;157.63;56.92;;;;;;;16.70;100.00;99274.72;5057786;28;20021;-55
2022/08/27 07:02:46;;;;;;;164.73;56.78;;;;;;;16.66;100.00;99279.91;5063360;28;20045;-56
2022/08/27 07:05:11;;;;;;;166.38;55.88;;;;;;;16.58;100.00;99284.03;5063580;28;20053;-55
2022/08/27 07:07:36;;;;;;;156.88;53.17;;;;;;;16.56;100.00;99283.47;5069038;28;20095;-54
2022/08/27 07:10:03;;;;;;;159.55;54.28;;;;;;;16.54;100.00;99282.16;5070299;28;20090;-55
2022/08/27 07:12:28;;;;;;;154.77;54.20;;;;;;;16.43;100.00;99281.41;5064635;28;20044;-56
2022/08/27 07:14:54;;;;;;;156.00;53.97;;;;;;;16.48;100.00;99286.78;5067082;28;20021;-55
2022/08/27 07:17:19;;;;;;;158.85;53.78;;;;;;;16.50;100.00;99281.09;5066000;28;20382;-55
2022/08/27 07:19:45;;;;;;;142.50;50.85;;;;;;;16.62;100.00;99284.25;5068287;28;20032;-55
2022/08/27 07:22:13;;;;;;;131.23;52.00;;;;;;;16.64;100.00;99287.50;5064991;28;20514;-55
2022/08/27 07:24:39;;;;;;;140.00;50.47;;;;;;;16.76;100.00;99281.72;5088254;28;20032;-55
2022/08/27 07:27:05;;;;;;;141.80;52.88;;;;;;;16.70;100.00;99285.56;5070183;28;21393;-55
2022/08/27 07:29:31;;;;;;;138.90;50.90;;;;;;;16.64;100.00;99292.09;5068603;28;20368;-55
2022/08/27 07:31:57;;;;;;;135.25;53.60;;;;;;;16.58;100.00;99289.44;5066419;28;20120;-55
2022/08/27 07:34:22;;;;;;;142.55;52.85;;;;;;;16.65;99.95;99296.41;5054704;28;20033;-57
2022/08/27 07:36:50;;;;;;;131.80;50.47;;;;;;;16.70;99.53;99301.78;5063510;28;20027;-56
2022/08/27 07:39:15;;;;;;;134.77;50.15;;;;;;;16.65;99.68;99296.41;5066332;28;20075;-55
2022/08/27 07:44:26;;;;;;;143.40;52.25;;;;;;;16.78;98.73;99298.53;5071062;28;20066;-55
2022/08/27 07:46:55;;;;;;;176.48;57.00;;;;;;;16.50;100.00;99291.91;5068969;28;20484;-55
2022/08/27 07:49:21;;;;;;;172.68;54.45;;;;;;;16.73;99.49;99303.97;5093262;28;20033;-55
2022/08/27 07:51:47;;;;;;;183.35;58.53;;;;;;;16.62;99.67;99295.06;5071132;28;20489;-55
2022/08/27 07:54:13;;;;;;;176.15;56.30;;;;;;;16.60;99.86;99303.50;5071587;28;20040;-55
2022/08/27 07:56:38;;;;;;;174.70;56.22;;;;;;;16.56;99.78;99304.31;5064627;28;20164;-54
2022/08/27 07:59:03;;;;;;;179.88;54.75;;;;;;;16.53;100.00;99303.00;5065317;28;20025;-55
2022/08/27 08:01:29;;;;;;;178.65;54.25;;;;;;;16.58;99.99;99308.38;5066319;28;20025;-55
2022/08/27 08:03:55;;;;;;;175.13;55.10;;;;;;;16.50;100.00;99325.19;5061374;28;20025;-56
2022/08/27 08:06:20;;;;;;;174.43;53.35;;;;;;;16.52;99.71;99317.59;5060960;28;20071;-54
2022/08/27 08:08:46;;;;;;;165.50;51.50;;;;;;;16.51;99.77;99315.97;5055365;28;20025;-56
2022/08/27 08:11:14;;;;;;;165.25;50.58;;;;;;;16.42;99.49;99314.94;5070133;28;20028;-53
2022/08/27 08:13:39;;;;;;;157.50;49.03;;;;;;;16.45;99.95;99311.69;5068363;28;20033;-55
2022/08/27 08:16:05;;;;;;;141.63;47.50;;;;;;;16.56;98.69;99317.84;5068756;28;20408;-56
2022/08/27 08:18:31;;;;;;;141.60;48.30;;;;;;;16.59;98.15;99318.09;5066923;28;20028;-56
2022/08/27 08:21:07;;;;;;;132.63;44.03;;;;;;;16.58;98.14;99321.91;5065086;28;20025;-55
2022/08/27 08:23:33;;;;;;;127.50;44.03;;;;;;;16.64;97.53;99313.75;5063933;28;20505;-54
2022/08/27 08:25:59;;;;;;;132.48;45.92;;;;;;;16.70;96.90;99328.84;5066426;28;20016;-54
2022/08/27 08:28:26;;;;;;;131.35;41.50;;;;;;;16.78;96.88;99322.91;5060087;28;20032;-55
2022/08/27 08:30:52;;;;;;;130.48;41.90;;;;;;;16.66;96.36;99330.53;5070484;28;20036;-57
2022/08/27 08:33:17;;;;;;;110.65;41.50;;;;;;;16.68;96.61;99331.06;5070987;28;20036;-57
2022/08/27 08:35:43;;;;;;;124.15;40.60;;;;;;;16.79;95.05;99329.91;5070375;28;20186;-57
2022/08/27 08:38:08;;;;;;;117.00;40.30;;;;;;;16.75;95.21;99337.78;5070878;28;20029;-56
2022/08/27 08:40:39;;;;;;;103.60;39.67;;;;;;;16.87;94.84;99334.72;5069420;28;20519;-56
2022/08/27 08:43:05;;;;;;;106.05;37.55;;;;;;;16.86;94.42;99338.53;5070095;28;20034;-55
2022/08/27 08:45:33;;;;;;;99.95;38.10;;;;;;;16.66;95.54;99336.72;5091765;28;20028;-54
2022/08/27 08:48:10;;;;;;;105.38;38.33;;;;;;;16.73;95.92;99341.84;5059409;28;20025;-55
2022/08/27 08:50:43;;;;;;;114.60;39.40;;;;;;;16.92;93.78;99345.50;5044865;28;20040;-56
2022/08/27 08:53:12;;;;;;;109.22;39.60;;;;;;;17.13;92.79;99348.09;5062814;28;20079;-54
2022/08/27 08:55:47;;;;;;;107.90;38.30;;;;;;;16.88;94.37;99336.34;5086315;28;20471;-56
2022/08/27 08:58:33;;;;;;;116.95;39.65;;;;;;;17.11;93.54;99342.16;5052151;28;20037;-56
2022/08/27 09:00:59;;;;;;;97.88;38.30;;;;;;;17.15;93.31;99345.91;5060517;28;20029;-55
2022/08/27 09:03:25;;;;;;;115.57;40.63;;;;;;;16.85;94.74;99349.63;5065658;28;20036;-54
2022/08/27 09:06:01;;;;;;;115.40;41.28;;;;;;;16.85;95.37;99352.34;5049683;28;20045;-54
2022/08/27 09:08:36;;;;;;;102.32;40.42;;;;;;;16.91;94.02;99351.22;5077045;28;20430;-56
2022/08/27 09:11:26;;;;;;;102.13;38.17;;;;;;;16.97;93.85;99350.94;5067356;28;20032;-55
2022/08/27 09:13:54;;;;;;;111.05;39.92;;;;;;;17.03;93.07;99348.97;5060153;28;20082;-55
2022/08/27 09:16:21;;;;;;;95.70;38.33;;;;;;;16.98;93.78;99351.72;5061975;28;20517;-54
2022/08/27 09:18:48;;;;;;;104.78;38.92;;;;;;;16.90;94.71;99360.44;5062949;28;20128;-55
2022/08/27 09:21:40;;;;;;;108.88;39.55;;;;;;;16.90;94.73;99357.72;5055568;28;20089;-55
2022/08/27 09:24:09;;;;;;;93.55;39.33;;;;;;;16.90;94.54;99357.72;5094761;28;20032;-55
2022/08/27 09:26:37;;;;;;;104.80;38.17;;;;;;;17.10;92.90;99362.19;5068766;28;20111;-54
2022/08/27 09:29:20;;;;;;;94.32;38.33;;;;;;;16.90;94.69;99371.25;5082195;28;20036;-54
2022/08/27 09:31:45;;;;;;;94.55;37.33;;;;;;;17.15;92.85;99370.28;5062896;28;20060;-54
2022/08/27 09:34:11;;;;;;;102.35;39.58;;;;;;;17.00;93.93;99374.72;5069830;28;20079;-55
2022/08/27 09:37:21;;;;;;;85.60;36.75;;;;;;;16.90;94.55;99371.25;5058170;28;20020;-55
2022/08/27 09:40:06;;;;;;;89.60;37.03;;;;;;;16.88;95.16;99376.16;5020624;28;20056;-53
2022/08/27 09:42:51;;;;;;;92.90;37.55;;;;;;;16.86;95.48;99371.00;5069446;28;20032;-54
2022/08/27 09:45:25;;;;;;;89.82;36.85;;;;;;;16.96;95.24;99375.56;5077109;28;20460;-55
2022/08/27 09:48:01;;;;;;;89.10;36.85;;;;;;;16.91;95.05;99379.09;5060645;28;20056;-54
2022/08/27 09:50:37;;;;;;;86.03;36.45;;;;;;;16.76;96.22;99382.69;5063311;28;20033;-55
2022/08/27 09:53:03;;;;;;;93.88;37.97;;;;;;;16.88;95.24;99378.88;5082212;28;20064;-55
2022/08/27 09:55:47;;;;;;;90.65;39.00;;;;;;;16.86;95.28;99376.44;5067855;28;20033;-54
2022/08/27 09:58:23;;;;;;;84.65;37.75;;;;;;;16.79;96.44;99376.72;5068172;28;20052;-55
2022/08/27 10:01:00;;;;;;;85.47;37.22;;;;;;;16.80;96.24;99382.97;5097861;28;20147;-54
2022/08/27 10:03:26;;;;;;;78.45;35.33;;;;;;;16.97;95.96;99378.00;5069466;28;20032;-55
2022/08/27 10:05:53;;;;;;;81.95;38.53;;;;;;;16.89;95.89;99375.84;5065151;28;20114;-55
2022/08/27 10:08:42;;;;;;;87.88;38.88;;;;;;;16.82;95.76;99378.06;5064508;28;20036;-55
2022/08/27 10:11:18;;;;;;;85.35;38.65;;;;;;;16.94;94.99;99383.94;5049068;28;20052;-54
2022/08/27 10:13:58;;;;;;;89.80;38.00;;;;;;;16.86;95.35;99381.84;5097100;28;20033;-54
2022/08/27 10:16:39;;;;;;;90.47;39.42;;;;;;;16.95;95.71;99377.47;5081662;28;20487;-55
2022/08/27 10:19:35;;;;;;;87.03;39.17;;;;;;;17.11;94.10;99374.66;5066598;28;20036;-55
2022/08/27 10:22:04;;;;;;;105.75;37.95;;;;;;;17.11;94.22;99366.53;5065805;28;20398;-55
2022/08/27 10:24:47;;;;;;;101.90;38.60;;;;;;;17.04;93.92;99374.94;5068636;28;20032;-57
2022/08/27 10:27:26;;;;;;;92.38;39.38;;;;;;;17.08;94.43;99377.94;5068969;28;20406;-55
2022/08/27 10:30:09;;;;;;;78.43;38.35;;;;;;;16.92;95.63;99375.28;5042504;28;20029;-54
2022/08/27 10:32:49;;;;;;;75.97;37.65;;;;;;;16.94;95.82;99375.03;5054808;28;20044;-56
2022/08/27 10:35:27;;;;;;;78.68;37.90;;;;;;;16.83;96.61;99374.28;5055940;28;20029;-54
2022/08/27 10:38:39;;;;;;;86.35;39.95;;;;;;;17.16;93.58;99372.69;5089197;28;20025;-56
2022/08/27 10:41:16;;;;;;;89.28;38.20;;;;;;;16.95;94.26;99369.34;5047315;28;20384;-55
2022/08/27 10:43:56;;;;;;;81.97;39.10;;;;;;;17.07;94.38;99381.72;5094962;28;20553;-54
2022/08/27 10:46:49;;;;;;;85.93;40.13;;;;;;;16.93;95.12;99374.22;5039282;28;20033;-56
2022/08/27 10:49:21;;;;;;;77.72;38.83;;;;;;;17.13;94.50;99381.41;5060048;28;20111;-56
2022/08/27 10:51:57;;;;;;;81.22;39.05;;;;;;;17.09;94.21;99377.63;5065097;28;20437;-55
2022/08/27 10:54:38;;;;;;;79.40;38.67;;;;;;;17.16;94.42;99380.03;5099175;28;20036;-56
2022/08/27 10:57:28;;;;;;;91.25;39.67;;;;;;;17.06;94.29;99377.41;5093433;28;20028;-55
2022/08/27 11:00:17;;;;;;;;;;;;;;;17.04;94.88;99378.47;5059020;28;20483;-53
2022/08/27 11:03:00;;;;;;;77.00;36.42;;;;;;;17.13;94.26;99384.09;5058646;28;19920;-57
2022/08/27 11:05:36;;;;;;;73.45;35.17;;;;;;;17.13;94.26;99381.41;5068200;28;20553;-55
2022/08/27 11:08:07;;;;;;;79.07;37.40;;;;;;;17.09;94.57;99385.75;5055333;28;20037;-54
2022/08/27 11:10:47;;;;;;;73.97;37.58;;;;;;;17.18;93.80;99384.06;5072359;28;20479;-54
2022/08/27 11:13:34;;;;;;;71.13;36.80;;;;;;;17.01;94.75;99384.44;5073008;28;20032;-54
2022/08/27 11:16:01;;;;;;;62.90;33.67;;;;;;;17.07;94.09;99374.38;5065242;28;20035;-53
2022/08/27 11:18:46;;;;;;;67.35;35.47;;;;;;;17.18;94.26;99383.25;5052159;28;20549;-55
2022/08/27 11:21:15;;;;;;;58.55;29.98;;;;;;;17.23;92.96;99375.09;5060689;28;20025;-56
2022/08/27 11:23:54;;;;;;;67.15;33.65;;;;;;;17.38;92.25;99382.31;5072358;28;20040;-54
2022/08/27 11:26:20;;;;;;;70.50;35.80;;;;;;;17.09;93.49;99383.03;5057235;28;20028;-55
2022/08/27 11:28:57;;;;;;;70.68;33.63;;;;;;;17.29;93.40;99386.69;5057452;28;20510;-55